createdAt,value
2022-08-05T00:01:48.813Z,49.23
2022-08-05T00:04:17.950Z,48.76
2022-08-05T00:06:47.268Z,49.04
2022-08-05T00:09:20.994Z,49.01
2022-08-05T00:11:55.810Z,49.69
2022-08-05T00:14:31.399Z,49.76
2022-08-05T00:17:01.997Z,49.23
2022-08-05T00:19:33.831Z,47.70
2022-08-05T00:22:13.732Z,48.24
2022-08-05T00:24:47.388Z,49.80
2022-08-05T00:27:28.504Z,49.74
2022-08-05T00:30:04.222Z,49.28
2022-08-05T00:32:32.247Z,50.52
2022-08-05T00:35:07.619Z,50.65
2022-08-05T00:37:52.580Z,50.49
2022-08-05T00:40:27.815Z,49.51
2022-08-05T00:42:58.897Z,49.35
2022-08-05T00:45:37.885Z,47.55
2022-08-05T00:48:08.284Z,47.53
2022-08-05T00:50:38.004Z,46.86
2022-08-05T00:53:09.761Z,46.91
2022-08-05T00:55:55.550Z,48.82
2022-08-05T00:58:27.155Z,48.21
2022-08-05T01:00:55.950Z,48.11
2022-08-05T01:03:24.346Z,47.96
2022-08-05T01:06:01.592Z,47.69
2022-08-05T01:08:43.094Z,48.50
2022-08-05T01:11:22.550Z,48.46
2022-08-05T01:14:15.319Z,48.54
2022-08-05T01:16:50.365Z,48.81
2022-08-05T01:20:01.881Z,48.63
2022-08-05T01:22:36.595Z,48.60
2022-08-05T01:25:40.425Z,49.05
2022-08-05T01:28:28.577Z,49.35
2022-08-05T01:31:03.181Z,49.84
2022-08-05T01:33:36.100Z,50.16
2022-08-05T01:36:12.856Z,51.13
2022-08-05T01:38:48.332Z,50.69
2022-08-05T01:41:21.011Z,50.76
2022-08-05T01:43:52.638Z,50.64
2022-08-05T01:46:42.529Z,50.44
2022-08-05T01:49:23.840Z,49.79
2022-08-05T01:51:56.514Z,50.19
2022-08-05T01:54:30.421Z,49.48
2022-08-05T01:58:10.129Z,50.29
2022-08-05T01:59:52.759Z,50.65
2022-08-05T02:02:28.475Z,50.70
2022-08-05T02:05:00.256Z,50.52
2022-08-05T02:07:30.481Z,50.70
2022-08-05T02:09:59.047Z,50.73
2022-08-05T02:12:35.885Z,50.84
2022-08-05T02:15:12.136Z,51.06
2022-08-05T02:18:31.484Z,51.10
2022-08-05T02:20:46.906Z,51.15
2022-08-05T02:23:16.166Z,50.50
2022-08-05T02:25:49.811Z,50.59
2022-08-05T02:28:29.202Z,51.02
2022-08-05T02:31:07.643Z,50.42
2022-08-05T02:33:48.729Z,51.05
2022-08-05T02:36:27.449Z,49.68
2022-08-05T02:38:58.132Z,51.78
2022-08-05T02:41:36.261Z,51.01
2022-08-05T02:44:18.182Z,51.02
2022-08-05T02:46:58.672Z,50.14
2022-08-05T02:49:35.762Z,49.73
2022-08-05T02:52:06.078Z,50.28
2022-08-05T02:54:37.260Z,50.37
2022-08-05T02:57:10.240Z,51.13
2022-08-05T02:59:56.362Z,50.21
2022-08-05T03:02:29.983Z,51.08
2022-08-05T03:05:00.198Z,52.11
2022-08-05T03:08:00.911Z,52.10
2022-08-05T03:10:24.687Z,50.66
2022-08-05T03:12:54.993Z,51.65
2022-08-05T03:15:24.363Z,52.01
2022-08-05T03:17:57.442Z,53.01
2022-08-05T03:20:26.486Z,53.01
2022-08-05T03:22:57.693Z,53.81
2022-08-05T03:25:32.402Z,53.82
2022-08-05T03:28:18.780Z,54.21
2022-08-05T03:30:49.699Z,54.62
2022-08-05T03:33:20.635Z,54.59
2022-08-05T03:35:51.689Z,54.92
2022-08-05T03:38:32.958Z,56.11
2022-08-05T03:41:08.216Z,56.11
2022-08-05T03:44:08.815Z,55.57
2022-08-05T03:46:29.543Z,55.17
2022-08-05T03:48:59.816Z,55.52
2022-08-05T03:52:37.710Z,55.72
2022-08-05T03:55:07.010Z,56.15
2022-08-05T03:57:41.571Z,56.75
2022-08-05T04:00:15.653Z,57.05
2022-08-05T04:02:58.311Z,58.01
2022-08-05T04:05:33.590Z,58.16
2022-08-05T04:08:03.626Z,57.46
2022-08-05T04:10:38.152Z,58.67
2022-08-05T04:13:09.034Z,57.30
2022-08-05T04:15:37.417Z,58.14
2022-08-05T04:18:09.349Z,59.71
2022-08-05T04:20:41.310Z,60.59
2022-08-05T04:23:12.446Z,60.06
2022-08-05T04:26:00.589Z,59.23
2022-08-05T04:28:30.946Z,59.69
2022-08-05T04:31:00.877Z,59.96
2022-08-05T04:33:54.752Z,60.06
2022-08-05T04:36:45.986Z,61.07
2022-08-05T04:39:07.532Z,61.68
2022-08-05T04:41:36.859Z,63.28
2022-08-05T04:44:08.833Z,62.63
2022-08-05T04:46:38.195Z,64.24
2022-08-05T04:49:14.496Z,64.12
2022-08-05T04:51:44.650Z,65.16
2022-08-05T04:54:14.824Z,64.42
2022-08-05T04:56:43.517Z,60.39
2022-08-05T04:59:13.957Z,63.48
2022-08-05T05:02:07.590Z,59.18
2022-08-05T05:04:47.550Z,61.90
2022-08-05T05:07:23.847Z,61.85
2022-08-05T05:09:57.359Z,61.65
2022-08-05T05:12:27.182Z,60.11
2022-08-05T05:14:55.767Z,57.71
2022-08-05T05:17:55.391Z,60.30
2022-08-05T05:20:13.803Z,56.84
2022-08-05T05:22:44.095Z,59.49
2022-08-05T05:25:16.504Z,55.19
2022-08-05T05:27:53.506Z,57.79
2022-08-05T05:30:31.340Z,53.70
2022-08-05T05:33:09.106Z,58.79
2022-08-05T05:35:45.015Z,58.85
2022-08-05T05:38:14.511Z,57.89
2022-08-05T05:40:50.068Z,58.50
2022-08-05T05:43:27.497Z,58.88
2022-08-05T05:46:12.207Z,59.12
2022-08-05T05:48:44.286Z,58.32
2022-08-05T05:51:14.892Z,58.57
2022-08-05T05:53:46.000Z,58.30
2022-08-05T05:56:32.386Z,59.32
2022-08-05T05:59:03.137Z,59.66
2022-08-05T06:01:37.760Z,58.57
2022-08-05T06:04:08.169Z,57.36
2022-08-05T06:06:36.855Z,56.24
2022-08-05T06:09:18.542Z,55.46
2022-08-05T06:11:59.308Z,55.95
2022-08-05T06:14:29.646Z,55.83
2022-08-05T06:16:58.142Z,55.86
2022-08-05T06:19:34.773Z,56.21
2022-08-05T06:22:03.796Z,55.85
2022-08-05T06:24:33.367Z,54.69
2022-08-05T06:27:04.037Z,53.65
2022-08-05T06:29:49.610Z,52.76
2022-08-05T06:32:26.282Z,52.76
2022-08-05T06:34:58.696Z,53.00
2022-08-05T06:37:58.403Z,53.19
2022-08-05T06:40:18.184Z,52.79
2022-08-05T06:42:51.652Z,54.11
2022-08-05T06:45:21.165Z,54.67
2022-08-05T06:48:35.939Z,55.37
2022-08-05T06:50:40.695Z,54.15
2022-08-05T06:53:19.569Z,55.30
2022-08-05T06:55:54.679Z,55.76
2022-08-05T06:58:29.972Z,55.39
2022-08-05T07:01:05.433Z,53.80
2022-08-05T07:03:33.933Z,54.00
2022-08-05T07:06:06.045Z,54.14
2022-08-05T07:08:43.167Z,53.74
2022-08-05T07:11:22.160Z,54.36
2022-08-05T07:14:19.947Z,54.53
2022-08-05T07:18:02.123Z,53.56
2022-08-05T07:22:47.810Z,51.04
2022-08-05T07:25:53.930Z,50.51
2022-08-05T07:28:11.815Z,51.03
2022-08-05T07:30:50.415Z,49.43
2022-08-05T07:33:36.762Z,49.45
2022-08-05T07:36:21.536Z,49.93
2022-08-05T07:38:54.956Z,50.24
2022-08-05T07:42:07.744Z,51.28
2022-08-05T07:44:19.003Z,51.81
2022-08-05T07:46:49.263Z,51.91
2022-08-05T07:49:20.970Z,51.47
2022-08-05T07:54:51.317Z,51.96
2022-08-05T07:58:02.988Z,51.82
2022-08-05T08:00:36.310Z,50.75
2022-08-05T08:03:14.822Z,50.30
2022-08-05T08:05:49.802Z,50.21
2022-08-05T08:08:21.749Z,49.71
2022-08-05T08:10:56.242Z,48.61
2022-08-05T08:13:29.104Z,47.17
2022-08-05T08:16:50.038Z,46.29
2022-08-05T08:18:49.893Z,44.66
2022-08-05T08:21:18.791Z,43.15
2022-08-05T08:24:02.013Z,43.36
2022-08-05T08:26:32.817Z,42.79
2022-08-05T08:29:09.793Z,41.94
2022-08-05T08:31:52.275Z,41.47
2022-08-05T08:34:30.790Z,39.93
2022-08-05T08:37:04.806Z,39.77
2022-08-05T08:39:37.858Z,39.53
2022-08-05T08:42:32.405Z,38.65
2022-08-05T08:45:25.408Z,38.20
2022-08-05T08:48:12.621Z,37.72
2022-08-05T08:51:03.525Z,36.99
2022-08-05T08:53:30.673Z,37.39
2022-08-05T08:56:05.071Z,36.93
2022-08-05T08:58:44.509Z,36.54
2022-08-05T09:01:18.078Z,36.76
2022-08-05T09:03:55.312Z,37.14
2022-08-05T09:06:29.992Z,36.51
2022-08-05T09:09:00.382Z,36.34
2022-08-05T09:11:50.723Z,36.76
2022-08-05T09:14:58.530Z,36.25
2022-08-05T09:17:09.530Z,35.45
2022-08-05T09:20:01.561Z,35.38
2022-08-05T09:23:09.292Z,35.41
2022-08-05T09:26:01.503Z,35.10
2022-08-05T09:28:32.257Z,34.99
2022-08-05T09:32:38.713Z,34.88
2022-08-05T09:33:58.718Z,35.58
2022-08-05T09:36:54.067Z,35.21
2022-08-05T09:39:42.030Z,34.68
2022-08-05T09:42:17.348Z,33.91
2022-08-05T09:44:56.013Z,33.92
2022-08-05T09:47:35.201Z,33.42
2022-08-05T09:50:17.783Z,32.94
2022-08-05T09:53:02.213Z,33.07
2022-08-05T09:55:57.946Z,33.06
2022-08-05T09:58:25.727Z,33.61
2022-08-05T10:01:00.952Z,34.10
2022-08-05T10:03:38.735Z,33.06
2022-08-05T10:06:24.084Z,33.20
2022-08-05T10:08:56.164Z,32.73
2022-08-05T10:11:31.420Z,31.84
2022-08-05T10:14:22.398Z,32.00
2022-08-05T10:16:52.972Z,31.81
2022-08-05T10:19:23.572Z,32.76
2022-08-05T10:22:00.912Z,33.16
2022-08-05T10:24:34.374Z,34.25
2022-08-05T10:27:08.323Z,33.85
2022-08-05T10:30:06.951Z,33.32
2022-08-05T10:32:52.513Z,33.81
2022-08-05T10:35:14.259Z,32.03
2022-08-05T10:37:44.686Z,32.17
2022-08-05T10:40:28.101Z,32.39
2022-08-05T10:42:59.964Z,32.18
2022-08-05T10:45:40.090Z,32.21
2022-08-05T10:48:38.446Z,32.01
2022-08-05T10:51:28.329Z,31.61
2022-08-05T10:54:01.769Z,31.87
2022-08-05T10:56:46.766Z,32.29
2022-08-05T11:00:03.195Z,32.06
2022-08-05T11:02:14.469Z,30.75
2022-08-05T11:04:57.678Z,31.81
2022-08-05T11:07:32.982Z,31.68
2022-08-05T11:10:30.018Z,30.59
2022-08-05T11:13:01.709Z,31.31
2022-08-05T11:16:00.851Z,30.08
2022-08-05T11:18:32.338Z,31.63
2022-08-05T11:21:11.290Z,31.25
2022-08-05T11:24:05.536Z,32.49
2022-08-05T11:26:35.087Z,33.12
2022-08-05T11:29:13.775Z,33.60
2022-08-05T11:31:56.417Z,33.26
2022-08-05T11:34:50.781Z,33.15
2022-08-05T11:38:26.641Z,33.18
2022-08-05T11:41:34.545Z,32.99
2022-08-05T11:44:04.841Z,33.16
2022-08-05T11:46:58.205Z,33.80
2022-08-05T11:49:27.578Z,34.66
2022-08-05T11:51:57.419Z,34.27
2022-08-05T11:54:33.988Z,34.10
2022-08-05T11:57:08.095Z,34.14
2022-08-05T11:59:52.995Z,34.00
2022-08-05T12:02:31.380Z,34.88
2022-08-05T12:05:07.438Z,33.76
2022-08-05T12:08:09.559Z,34.00
2022-08-05T12:10:38.530Z,32.04
2022-08-05T12:13:16.684Z,32.19
2022-08-05T12:15:49.938Z,31.87
2022-08-05T12:18:32.955Z,32.11
2022-08-05T12:21:11.482Z,31.78
2022-08-05T12:23:43.166Z,32.58
2022-08-05T12:26:11.578Z,32.60
2022-08-05T12:28:39.730Z,32.35
2022-08-05T12:31:07.804Z,33.25
2022-08-05T12:33:38.798Z,32.23
2022-08-05T12:36:08.983Z,33.15
2022-08-05T12:38:39.579Z,32.54
2022-08-05T12:41:13.499Z,32.79
2022-08-05T12:43:56.687Z,32.20
2022-08-05T12:46:29.220Z,32.70
2022-08-05T12:49:05.870Z,32.53
2022-08-05T12:52:10.643Z,33.17
2022-08-05T12:54:37.399Z,33.14
2022-08-05T12:57:09.607Z,34.42
2022-08-05T13:01:58.539Z,33.93
2022-08-05T13:02:39.806Z,33.46
2022-08-05T13:05:12.668Z,33.36
2022-08-05T13:08:01.013Z,33.03
2022-08-05T13:10:33.284Z,33.06
2022-08-05T13:13:02.755Z,32.40
2022-08-05T13:15:41.183Z,31.62
2022-08-05T13:18:19.383Z,30.70
2022-08-05T13:20:50.337Z,30.65
2022-08-05T13:23:22.876Z,31.34
2022-08-05T13:25:59.567Z,30.50
2022-08-05T13:28:32.395Z,30.35
2022-08-05T13:31:11.235Z,30.49
2022-08-05T13:34:22.728Z,29.56
2022-08-05T13:36:34.522Z,28.80
2022-08-05T13:39:02.741Z,30.13
2022-08-05T13:41:50.868Z,31.02
2022-08-05T13:44:19.249Z,31.88
2022-08-05T13:47:02.468Z,32.09
2022-08-05T13:49:35.420Z,31.42
2022-08-05T13:52:13.509Z,31.66
2022-08-05T13:54:42.354Z,31.53
2022-08-05T13:57:23.160Z,31.10
2022-08-05T13:59:59.359Z,29.89
2022-08-05T14:02:31.374Z,30.26
2022-08-05T14:05:29.528Z,30.10
2022-08-05T14:08:11.382Z,29.07
2022-08-05T14:10:51.393Z,29.97
2022-08-05T14:13:23.524Z,29.34
2022-08-05T14:16:04.489Z,29.26
2022-08-05T14:18:34.957Z,28.40
2022-08-05T14:22:07.203Z,28.70
2022-08-05T14:23:57.813Z,29.87
2022-08-05T14:26:37.067Z,29.81
2022-08-05T14:29:16.290Z,28.36
2022-08-05T14:32:02.600Z,28.94
2022-08-05T14:34:37.054Z,29.28
2022-08-05T14:37:09.248Z,29.51
2022-08-05T14:39:57.039Z,31.24
2022-08-05T14:42:34.356Z,30.27
2022-08-05T14:45:07.648Z,31.37
2022-08-05T14:48:04.205Z,30.73
2022-08-05T14:50:27.414Z,29.92
2022-08-05T14:52:59.113Z,29.83
2022-08-05T14:55:38.689Z,30.44
2022-08-05T14:58:11.157Z,30.79
2022-08-05T15:00:59.638Z,31.04
2022-08-05T15:03:34.000Z,32.63
2022-08-05T15:06:15.420Z,32.78
2022-08-05T15:08:59.752Z,33.30
2022-08-05T15:11:52.325Z,33.18
2022-08-05T15:14:34.447Z,33.77
2022-08-05T15:17:09.801Z,34.16
2022-08-05T15:19:55.160Z,35.04
2022-08-05T15:22:27.411Z,35.89
2022-08-05T15:24:56.819Z,36.48
2022-08-05T15:27:26.638Z,37.13
2022-08-05T15:30:05.076Z,37.11
2022-08-05T15:32:33.357Z,38.64
2022-08-05T15:35:04.129Z,37.43
2022-08-05T15:38:35.003Z,38.11
2022-08-05T15:40:58.761Z,38.32
2022-08-05T15:43:20.518Z,38.10
2022-08-05T15:46:00.806Z,39.63
2022-08-05T15:48:30.079Z,39.52
2022-08-05T15:51:03.307Z,39.81
2022-08-05T15:53:37.809Z,39.96
2022-08-05T15:56:13.153Z,41.59
2022-08-05T15:58:43.868Z,41.25
2022-08-05T16:01:17.407Z,40.97
2022-08-05T16:03:48.519Z,42.50
2022-08-05T16:06:20.231Z,41.16
2022-08-05T16:08:51.294Z,41.99
2022-08-05T16:11:42.560Z,44.54
2022-08-05T16:14:17.159Z,44.52
2022-08-05T16:16:46.656Z,44.51
2022-08-05T16:19:25.569Z,44.42
2022-08-05T16:22:03.674Z,44.95
2022-08-05T16:24:39.777Z,45.28
2022-08-05T16:27:10.300Z,43.70
2022-08-05T16:29:50.837Z,44.04
2022-08-05T16:32:28.537Z,45.85
2022-08-05T16:34:57.586Z,45.38
2022-08-05T16:38:15.000Z,47.18
2022-08-05T16:40:26.709Z,46.77
2022-08-05T16:42:57.640Z,47.45
2022-08-05T16:46:02.802Z,47.61
2022-08-05T16:48:25.200Z,47.70
2022-08-05T16:50:57.022Z,48.03
2022-08-05T16:53:32.018Z,48.64
2022-08-05T16:56:04.832Z,48.41
2022-08-05T16:58:42.086Z,48.36
2022-08-05T17:01:18.902Z,48.79
2022-08-05T17:03:49.155Z,47.51
2022-08-05T17:06:17.859Z,48.36
2022-08-05T17:08:52.763Z,49.03
2022-08-05T17:11:25.995Z,48.98
2022-08-05T17:14:05.222Z,51.07
2022-08-05T17:16:40.787Z,49.91
2022-08-05T17:19:10.915Z,50.02
2022-08-05T17:21:51.591Z,50.25
2022-08-05T17:24:36.557Z,49.79
2022-08-05T17:27:09.252Z,50.99
2022-08-05T17:29:41.774Z,50.92
2022-08-05T17:32:17.276Z,50.92
2022-08-05T17:34:48.090Z,51.21
2022-08-05T17:37:39.755Z,51.46
2022-08-05T17:40:12.910Z,51.77
2022-08-05T17:42:51.042Z,51.39
2022-08-05T17:45:22.241Z,51.42
2022-08-05T17:47:59.832Z,51.59
2022-08-05T17:50:30.998Z,52.05
2022-08-05T17:53:13.034Z,51.78
2022-08-05T17:55:44.181Z,51.93
2022-08-05T17:58:16.380Z,52.29
2022-08-05T18:00:51.724Z,51.80
2022-08-05T18:03:56.435Z,51.81
2022-08-05T18:06:16.330Z,52.42
2022-08-05T18:08:52.351Z,52.49
2022-08-05T18:11:24.759Z,52.43
2022-08-05T18:14:13.190Z,52.47
2022-08-05T18:16:51.848Z,51.56
2022-08-05T18:19:26.061Z,51.79
2022-08-05T18:22:09.777Z,52.74
2022-08-05T18:24:40.267Z,53.13
2022-08-05T18:27:18.094Z,52.75
2022-08-05T18:29:51.959Z,52.59
2022-08-05T18:32:28.214Z,52.13
2022-08-05T18:34:59.546Z,52.70
2022-08-05T18:37:34.209Z,52.21
2022-08-05T18:41:50.554Z,52.41
2022-08-05T18:42:57.930Z,52.52
2022-08-05T18:45:41.311Z,53.00
2022-08-05T18:48:11.350Z,52.30
2022-08-05T18:51:01.659Z,51.55
2022-08-05T18:53:50.520Z,50.83
2022-08-05T18:56:21.879Z,50.69
2022-08-05T18:58:54.906Z,50.42
2022-08-05T19:01:33.596Z,49.92
2022-08-05T19:04:24.092Z,49.90
2022-08-05T19:06:53.988Z,52.09
2022-08-05T19:09:22.503Z,53.65
2022-08-05T19:11:59.194Z,53.13
2022-08-05T19:14:37.807Z,52.88
2022-08-05T19:17:18.244Z,51.67
2022-08-05T19:19:48.524Z,51.11
2022-08-05T19:22:18.786Z,49.76
2022-08-05T19:24:54.185Z,49.47
2022-08-05T19:27:24.352Z,49.24
2022-08-05T19:29:58.389Z,48.47
2022-08-05T19:32:27.918Z,48.66
2022-08-05T19:34:56.491Z,48.71
2022-08-05T19:37:29.997Z,48.38
2022-08-05T19:40:15.857Z,48.28
2022-08-05T19:43:04.927Z,49.10
2022-08-05T19:45:36.442Z,49.08
2022-08-05T19:48:05.998Z,49.46
2022-08-05T19:50:35.074Z,49.11
2022-08-05T19:53:10.404Z,49.78
2022-08-05T19:56:14.803Z,49.59
2022-08-05T19:58:30.104Z,50.04
2022-08-05T20:00:58.370Z,50.00
2022-08-05T20:03:27.466Z,49.75
2022-08-05T20:06:15.767Z,50.04
2022-08-05T20:08:52.821Z,49.66
2022-08-05T20:11:22.691Z,49.98
2022-08-05T20:13:58.318Z,49.66
2022-08-05T20:16:39.045Z,49.54
2022-08-05T20:19:07.338Z,50.80
2022-08-05T20:21:35.447Z,51.31
2022-08-05T20:24:11.606Z,52.56
2022-08-05T20:26:39.745Z,51.41
2022-08-05T20:29:26.880Z,51.66
2022-08-05T20:31:58.283Z,51.49
2022-08-05T20:34:27.739Z,52.30
2022-08-05T20:36:55.745Z,51.64
2022-08-05T20:39:25.152Z,51.43
2022-08-05T20:42:03.780Z,52.50
2022-08-05T20:44:32.876Z,52.68
2022-08-05T20:47:07.475Z,53.98
2022-08-05T20:49:39.441Z,53.83
2022-08-05T20:52:08.683Z,54.28
2022-08-05T20:54:55.065Z,55.90
2022-08-05T20:57:43.378Z,57.30
2022-08-05T21:00:41.068Z,57.32
2022-08-05T21:03:06.269Z,57.69
2022-08-05T21:05:47.917Z,57.47
2022-08-05T21:08:33.019Z,55.87
2022-08-05T21:11:12.730Z,56.81
2022-08-05T21:13:55.863Z,55.44
2022-08-05T21:16:29.877Z,58.07
2022-08-05T21:19:00.396Z,58.40
2022-08-05T21:21:43.956Z,57.48
2022-08-05T21:24:19.703Z,56.95
2022-08-05T21:26:57.844Z,56.69
2022-08-05T21:29:32.024Z,56.57
2022-08-05T21:32:01.404Z,56.09
2022-08-05T21:34:31.621Z,55.72
2022-08-05T21:37:01.134Z,55.40
2022-08-05T21:39:29.875Z,54.40
2022-08-05T21:42:01.163Z,55.57
2022-08-05T21:44:30.330Z,55.72
2022-08-05T21:46:59.205Z,56.88
2022-08-05T21:49:58.545Z,55.97
2022-08-05T21:52:26.935Z,55.38
2022-08-05T21:54:56.745Z,55.27
2022-08-05T21:57:33.280Z,55.51
2022-08-05T22:00:06.387Z,55.04
2022-08-05T22:02:35.188Z,55.21
2022-08-05T22:05:04.478Z,54.58
2022-08-05T22:07:40.452Z,54.37
2022-08-05T22:10:27.080Z,53.07
2022-08-05T22:12:58.712Z,53.71
2022-08-05T22:16:00.750Z,53.78
2022-08-05T22:18:16.016Z,53.36
2022-08-05T22:20:47.661Z,53.31
2022-08-05T22:24:02.180Z,52.98
2022-08-05T22:26:42.708Z,52.86
2022-08-05T22:29:26.823Z,52.22
2022-08-05T22:31:59.348Z,51.87
2022-08-05T22:34:28.932Z,51.42
2022-08-05T22:36:58.823Z,51.21
2022-08-05T22:39:32.578Z,51.62
2022-08-05T22:42:11.717Z,52.34
2022-08-05T22:44:48.228Z,52.02
2022-08-05T22:47:29.555Z,51.87
2022-08-05T22:50:18.410Z,51.45
2022-08-05T22:52:48.263Z,52.67
2022-08-05T22:55:19.287Z,52.92
2022-08-05T22:57:49.020Z,53.57
2022-08-05T23:00:20.876Z,53.98
2022-08-05T23:02:50.138Z,54.25
2022-08-05T23:05:18.847Z,55.41
2022-08-05T23:07:50.500Z,56.06
2022-08-05T23:10:20.635Z,56.78
2022-08-05T23:12:51.481Z,57.63
2022-08-05T23:15:26.956Z,58.16
2022-08-05T23:18:01.210Z,58.40
2022-08-05T23:20:32.109Z,57.83
2022-08-05T23:23:03.481Z,59.34
2022-08-05T23:25:51.216Z,58.75
2022-08-05T23:28:22.652Z,59.08
2022-08-05T23:30:54.695Z,58.72
2022-08-05T23:33:26.283Z,60.41
2022-08-05T23:36:13.575Z,59.75
2022-08-05T23:38:42.862Z,60.35
2022-08-05T23:41:11.770Z,60.19
2022-08-05T23:44:04.524Z,60.85
2022-08-05T23:46:29.763Z,61.11
2022-08-05T23:49:01.023Z,58.79
2022-08-05T23:51:55.151Z,60.95
2022-08-05T23:54:25.622Z,61.96
2022-08-05T23:56:55.489Z,60.72
2022-08-05T23:59:27.833Z,60.38
